sensor_id;sensor_type;location;lat;lon;timestamp;P1;durP1;ratioP1;P2;durP2;ratioP2
34497;SDS011;20744;50.938;7.286;2022-07-29T00:00:19;6.07;;;1.50;;
34497;SDS011;20744;50.938;7.286;2022-07-29T00:02:47;4.35;;;1.15;;
34497;SDS011;20744;50.938;7.286;2022-07-29T00:05:15;6.57;;;1.40;;
34497;SDS011;20744;50.938;7.286;2022-07-29T00:07:42;5.82;;;1.30;;
34497;SDS011;20744;50.938;7.286;2022-07-29T00:10:10;5.00;;;0.90;;
34497;SDS011;20744;50.938;7.286;2022-07-29T00:12:37;6.97;;;1.40;;
34497;SDS011;20744;50.938;7.286;2022-07-29T00:15:05;5.60;;;1.30;;
34497;SDS011;20744;50.938;7.286;2022-07-29T00:17:32;5.55;;;1.10;;
34497;SDS011;20744;50.938;7.286;2022-07-29T00:19:59;4.57;;;1.15;;
34497;SDS011;20744;50.938;7.286;2022-07-29T00:22:28;7.05;;;1.10;;
34497;SDS011;20744;50.938;7.286;2022-07-29T00:24:55;7.95;;;1.30;;
34497;SDS011;20744;50.938;7.286;2022-07-29T00:27:22;3.25;;;1.20;;
34497;SDS011;20744;50.938;7.286;2022-07-29T00:29:50;6.90;;;1.25;;
34497;SDS011;20744;50.938;7.286;2022-07-29T00:32:17;3.53;;;1.23;;
34497;SDS011;20744;50.938;7.286;2022-07-29T00:34:44;3.97;;;1.20;;
34497;SDS011;20744;50.938;7.286;2022-07-29T00:37:30;3.30;;;1.30;;
34497;SDS011;20744;50.938;7.286;2022-07-29T00:39:57;3.20;;;1.10;;
34497;SDS011;20744;50.938;7.286;2022-07-29T00:42:25;11.90;;;1.60;;
34497;SDS011;20744;50.938;7.286;2022-07-29T00:44:52;5.13;;;1.20;;
34497;SDS011;20744;50.938;7.286;2022-07-29T00:47:20;4.55;;;1.02;;
34497;SDS011;20744;50.938;7.286;2022-07-29T00:49:47;4.93;;;1.25;;
34497;SDS011;20744;50.938;7.286;2022-07-29T00:52:14;5.03;;;1.10;;
34497;SDS011;20744;50.938;7.286;2022-07-29T00:54:43;5.20;;;1.40;;
34497;SDS011;20744;50.938;7.286;2022-07-29T00:57:11;5.70;;;1.15;;
34497;SDS011;20744;50.938;7.286;2022-07-29T00:59:38;4.15;;;1.10;;
34497;SDS011;20744;50.938;7.286;2022-07-29T01:02:06;8.43;;;1.63;;
34497;SDS011;20744;50.938;7.286;2022-07-29T01:04:33;7.28;;;1.25;;
34497;SDS011;20744;50.938;7.286;2022-07-29T01:07:00;4.25;;;1.25;;
34497;SDS011;20744;50.938;7.286;2022-07-29T01:09:28;4.45;;;1.10;;
34497;SDS011;20744;50.938;7.286;2022-07-29T01:11:57;5.88;;;1.13;;
34497;SDS011;20744;50.938;7.286;2022-07-29T01:14:25;2.08;;;1.00;;
34497;SDS011;20744;50.938;7.286;2022-07-29T01:16:54;4.65;;;1.38;;
34497;SDS011;20744;50.938;7.286;2022-07-29T01:19:33;5.67;;;1.30;;
34497;SDS011;20744;50.938;7.286;2022-07-29T01:22:13;8.32;;;1.08;;
34497;SDS011;20744;50.938;7.286;2022-07-29T01:24:51;8.73;;;1.30;;
34497;SDS011;20744;50.938;7.286;2022-07-29T01:27:30;5.82;;;1.23;;
34497;SDS011;20744;50.938;7.286;2022-07-29T01:30:01;4.85;;;1.20;;
34497;SDS011;20744;50.938;7.286;2022-07-29T01:32:29;7.32;;;1.40;;
34497;SDS011;20744;50.938;7.286;2022-07-29T01:34:59;5.45;;;1.48;;
34497;SDS011;20744;50.938;7.286;2022-07-29T01:37:31;6.97;;;1.38;;
34497;SDS011;20744;50.938;7.286;2022-07-29T01:39:59;5.68;;;1.30;;
34497;SDS011;20744;50.938;7.286;2022-07-29T01:42:30;6.93;;;1.30;;
34497;SDS011;20744;50.938;7.286;2022-07-29T01:44:59;11.05;;;1.10;;
34497;SDS011;20744;50.938;7.286;2022-07-29T01:47:31;3.47;;;1.20;;
34497;SDS011;20744;50.938;7.286;2022-07-29T01:50:00;2.80;;;1.10;;
34497;SDS011;20744;50.938;7.286;2022-07-29T01:52:31;3.28;;;1.27;;
34497;SDS011;20744;50.938;7.286;2022-07-29T01:55:02;4.93;;;1.40;;
34497;SDS011;20744;50.938;7.286;2022-07-29T01:57:31;6.65;;;1.35;;
34497;SDS011;20744;50.938;7.286;2022-07-29T02:00:00;3.28;;;1.08;;
34497;SDS011;20744;50.938;7.286;2022-07-29T02:02:29;4.47;;;1.58;;
34497;SDS011;20744;50.938;7.286;2022-07-29T02:04:57;10.10;;;1.48;;
34497;SDS011;20744;50.938;7.286;2022-07-29T02:07:26;6.63;;;1.20;;
34497;SDS011;20744;50.938;7.286;2022-07-29T02:09:54;8.82;;;1.52;;
34497;SDS011;20744;50.938;7.286;2022-07-29T02:12:22;7.25;;;1.35;;
34497;SDS011;20744;50.938;7.286;2022-07-29T02:14:51;6.40;;;1.30;;
34497;SDS011;20744;50.938;7.286;2022-07-29T02:17:21;6.68;;;1.30;;
34497;SDS011;20744;50.938;7.286;2022-07-29T02:19:50;10.15;;;1.38;;
34497;SDS011;20744;50.938;7.286;2022-07-29T02:22:18;3.90;;;1.17;;
34497;SDS011;20744;50.938;7.286;2022-07-29T02:24:46;11.35;;;1.20;;
34497;SDS011;20744;50.938;7.286;2022-07-29T02:27:14;5.43;;;1.27;;
34497;SDS011;20744;50.938;7.286;2022-07-29T02:29:42;4.72;;;1.20;;
34497;SDS011;20744;50.938;7.286;2022-07-29T02:32:10;5.25;;;1.27;;
34497;SDS011;20744;50.938;7.286;2022-07-29T02:34:38;4.63;;;1.40;;
34497;SDS011;20744;50.938;7.286;2022-07-29T02:37:06;3.40;;;1.42;;
34497;SDS011;20744;50.938;7.286;2022-07-29T02:39:35;9.18;;;1.67;;
34497;SDS011;20744;50.938;7.286;2022-07-29T02:42:03;5.07;;;1.33;;
34497;SDS011;20744;50.938;7.286;2022-07-29T02:44:31;6.07;;;1.20;;
34497;SDS011;20744;50.938;7.286;2022-07-29T02:47:02;5.25;;;1.33;;
34497;SDS011;20744;50.938;7.286;2022-07-29T02:49:33;7.45;;;1.50;;
34497;SDS011;20744;50.938;7.286;2022-07-29T02:52:02;3.50;;;1.25;;
34497;SDS011;20744;50.938;7.286;2022-07-29T02:54:33;7.05;;;1.20;;
34497;SDS011;20744;50.938;7.286;2022-07-29T02:57:04;7.30;;;1.42;;
34497;SDS011;20744;50.938;7.286;2022-07-29T02:59:34;6.78;;;1.48;;
34497;SDS011;20744;50.938;7.286;2022-07-29T03:02:03;3.92;;;1.20;;
34497;SDS011;20744;50.938;7.286;2022-07-29T03:04:32;8.00;;;1.35;;
34497;SDS011;20744;50.938;7.286;2022-07-29T03:06:59;4.97;;;1.20;;
34497;SDS011;20744;50.938;7.286;2022-07-29T03:09:27;4.78;;;1.30;;
34497;SDS011;20744;50.938;7.286;2022-07-29T03:11:56;5.00;;;1.48;;
34497;SDS011;20744;50.938;7.286;2022-07-29T03:14:23;5.60;;;1.45;;
34497;SDS011;20744;50.938;7.286;2022-07-29T03:16:51;3.45;;;1.02;;
34497;SDS011;20744;50.938;7.286;2022-07-29T03:19:18;4.32;;;1.40;;
34497;SDS011;20744;50.938;7.286;2022-07-29T03:21:46;7.78;;;1.65;;
34497;SDS011;20744;50.938;7.286;2022-07-29T03:24:26;4.45;;;1.50;;
34497;SDS011;20744;50.938;7.286;2022-07-29T03:26:55;5.47;;;1.50;;
34497;SDS011;20744;50.938;7.286;2022-07-29T03:29:23;3.90;;;1.35;;
34497;SDS011;20744;50.938;7.286;2022-07-29T03:31:50;4.35;;;1.80;;
34497;SDS011;20744;50.938;7.286;2022-07-29T03:34:18;2.75;;;1.40;;
34497;SDS011;20744;50.938;7.286;2022-07-29T03:36:45;2.90;;;1.35;;
34497;SDS011;20744;50.938;7.286;2022-07-29T03:39:14;3.10;;;1.20;;
34497;SDS011;20744;50.938;7.286;2022-07-29T03:41:42;3.90;;;1.10;;
34497;SDS011;20744;50.938;7.286;2022-07-29T03:44:12;4.78;;;1.60;;
34497;SDS011;20744;50.938;7.286;2022-07-29T03:46:40;6.35;;;1.55;;
34497;SDS011;20744;50.938;7.286;2022-07-29T03:49:08;5.00;;;1.20;;
34497;SDS011;20744;50.938;7.286;2022-07-29T03:51:36;5.00;;;1.30;;
34497;SDS011;20744;50.938;7.286;2022-07-29T03:54:03;4.15;;;1.48;;
34497;SDS011;20744;50.938;7.286;2022-07-29T03:56:32;6.63;;;1.35;;
34497;SDS011;20744;50.938;7.286;2022-07-29T03:58:59;7.10;;;1.38;;
34497;SDS011;20744;50.938;7.286;2022-07-29T04:01:30;4.45;;;1.30;;
34497;SDS011;20744;50.938;7.286;2022-07-29T04:03:59;4.38;;;1.10;;
34497;SDS011;20744;50.938;7.286;2022-07-29T04:06:26;7.65;;;1.17;;
34497;SDS011;20744;50.938;7.286;2022-07-29T04:08:53;3.65;;;1.33;;
34497;SDS011;20744;50.938;7.286;2022-07-29T04:11:21;5.00;;;1.20;;
34497;SDS011;20744;50.938;7.286;2022-07-29T04:13:48;7.70;;;1.30;;
34497;SDS011;20744;50.938;7.286;2022-07-29T04:16:15;5.22;;;1.48;;
34497;SDS011;20744;50.938;7.286;2022-07-29T04:18:44;6.30;;;1.23;;
34497;SDS011;20744;50.938;7.286;2022-07-29T04:21:11;5.03;;;1.70;;
34497;SDS011;20744;50.938;7.286;2022-07-29T04:23:38;4.72;;;1.60;;
34497;SDS011;20744;50.938;7.286;2022-07-29T04:26:06;2.22;;;1.10;;
34497;SDS011;20744;50.938;7.286;2022-07-29T04:28:34;9.38;;;1.80;;
34497;SDS011;20744;50.938;7.286;2022-07-29T04:31:03;3.15;;;1.50;;
34497;SDS011;20744;50.938;7.286;2022-07-29T04:33:30;4.88;;;1.15;;
34497;SDS011;20744;50.938;7.286;2022-07-29T04:35:59;4.22;;;1.35;;
34497;SDS011;20744;50.938;7.286;2022-07-29T04:38:26;6.53;;;1.42;;
34497;SDS011;20744;50.938;7.286;2022-07-29T04:40:53;3.47;;;1.38;;
34497;SDS011;20744;50.938;7.286;2022-07-29T04:43:21;4.18;;;1.63;;
34497;SDS011;20744;50.938;7.286;2022-07-29T04:45:48;5.50;;;1.35;;
34497;SDS011;20744;50.938;7.286;2022-07-29T04:48:15;7.22;;;1.55;;
34497;SDS011;20744;50.938;7.286;2022-07-29T04:50:42;11.23;;;1.40;;
34497;SDS011;20744;50.938;7.286;2022-07-29T04:53:11;4.78;;;1.67;;
34497;SDS011;20744;50.938;7.286;2022-07-29T04:55:38;2.55;;;1.20;;
34497;SDS011;20744;50.938;7.286;2022-07-29T04:58:06;3.90;;;1.38;;
34497;SDS011;20744;50.938;7.286;2022-07-29T05:00:33;6.97;;;1.50;;
34497;SDS011;20744;50.938;7.286;2022-07-29T05:03:00;3.92;;;1.40;;
34497;SDS011;20744;50.938;7.286;2022-07-29T05:05:28;8.07;;;1.40;;
34497;SDS011;20744;50.938;7.286;2022-07-29T05:07:55;13.23;;;2.03;;
34497;SDS011;20744;50.938;7.286;2022-07-29T05:10:24;18.10;;;2.28;;
34497;SDS011;20744;50.938;7.286;2022-07-29T05:12:51;18.90;;;2.35;;
34497;SDS011;20744;50.938;7.286;2022-07-29T05:15:18;16.23;;;2.13;;
34497;SDS011;20744;50.938;7.286;2022-07-29T05:17:46;7.60;;;1.77;;
34497;SDS011;20744;50.938;7.286;2022-07-29T05:20:13;6.47;;;1.77;;
34497;SDS011;20744;50.938;7.286;2022-07-29T05:22:40;13.30;;;1.77;;
34497;SDS011;20744;50.938;7.286;2022-07-29T05:25:07;7.30;;;1.55;;
34497;SDS011;20744;50.938;7.286;2022-07-29T05:27:36;10.93;;;1.77;;
34497;SDS011;20744;50.938;7.286;2022-07-29T05:30:04;6.13;;;1.60;;
34497;SDS011;20744;50.938;7.286;2022-07-29T05:32:31;10.65;;;1.58;;
34497;SDS011;20744;50.938;7.286;2022-07-29T05:34:59;9.77;;;1.70;;
34497;SDS011;20744;50.938;7.286;2022-07-29T05:37:26;10.75;;;1.90;;
34497;SDS011;20744;50.938;7.286;2022-07-29T05:39:53;12.02;;;1.98;;
34497;SDS011;20744;50.938;7.286;2022-07-29T05:42:20;15.10;;;1.85;;
34497;SDS011;20744;50.938;7.286;2022-07-29T05:44:49;6.50;;;1.70;;
34497;SDS011;20744;50.938;7.286;2022-07-29T05:47:16;9.90;;;1.80;;
34497;SDS011;20744;50.938;7.286;2022-07-29T05:49:44;6.10;;;1.48;;
34497;SDS011;20744;50.938;7.286;2022-07-29T05:52:11;10.45;;;1.60;;
34497;SDS011;20744;50.938;7.286;2022-07-29T05:54:39;9.68;;;1.52;;
34497;SDS011;20744;50.938;7.286;2022-07-29T05:57:06;10.48;;;1.50;;
34497;SDS011;20744;50.938;7.286;2022-07-29T05:59:35;6.75;;;1.67;;
34497;SDS011;20744;50.938;7.286;2022-07-29T06:02:04;6.07;;;1.48;;
34497;SDS011;20744;50.938;7.286;2022-07-29T06:04:31;3.58;;;1.23;;
34497;SDS011;20744;50.938;7.286;2022-07-29T06:06:58;7.75;;;1.40;;
34497;SDS011;20744;50.938;7.286;2022-07-29T06:09:26;5.82;;;1.70;;
34497;SDS011;20744;50.938;7.286;2022-07-29T06:11:54;6.40;;;1.63;;
34497;SDS011;20744;50.938;7.286;2022-07-29T06:14:21;8.63;;;1.77;;
34497;SDS011;20744;50.938;7.286;2022-07-29T06:16:48;4.53;;;1.65;;
34497;SDS011;20744;50.938;7.286;2022-07-29T06:19:17;4.97;;;1.55;;
34497;SDS011;20744;50.938;7.286;2022-07-29T06:21:44;7.03;;;1.27;;
34497;SDS011;20744;50.938;7.286;2022-07-29T06:24:12;5.90;;;1.60;;
34497;SDS011;20744;50.938;7.286;2022-07-29T06:26:39;6.15;;;1.35;;
34497;SDS011;20744;50.938;7.286;2022-07-29T06:29:06;4.68;;;1.40;;
34497;SDS011;20744;50.938;7.286;2022-07-29T06:31:34;4.72;;;1.52;;
34497;SDS011;20744;50.938;7.286;2022-07-29T06:34:01;5.53;;;1.63;;
34497;SDS011;20744;50.938;7.286;2022-07-29T06:36:30;8.13;;;1.63;;
34497;SDS011;20744;50.938;7.286;2022-07-29T06:38:57;6.35;;;1.80;;
34497;SDS011;20744;50.938;7.286;2022-07-29T06:41:24;12.00;;;1.52;;
34497;SDS011;20744;50.938;7.286;2022-07-29T06:43:52;8.43;;;1.50;;
34497;SDS011;20744;50.938;7.286;2022-07-29T06:46:19;5.53;;;1.42;;
34497;SDS011;20744;50.938;7.286;2022-07-29T06:48:47;5.00;;;1.65;;
34497;SDS011;20744;50.938;7.286;2022-07-29T06:51:14;4.63;;;1.38;;
34497;SDS011;20744;50.938;7.286;2022-07-29T06:53:43;7.57;;;1.70;;
34497;SDS011;20744;50.938;7.286;2022-07-29T06:56:10;8.93;;;1.50;;
34497;SDS011;20744;50.938;7.286;2022-07-29T06:58:38;7.88;;;1.63;;
34497;SDS011;20744;50.938;7.286;2022-07-29T07:01:06;14.30;;;1.80;;
34497;SDS011;20744;50.938;7.286;2022-07-29T07:03:33;4.80;;;1.38;;
34497;SDS011;20744;50.938;7.286;2022-07-29T07:06:00;10.85;;;1.38;;
34497;SDS011;20744;50.938;7.286;2022-07-29T07:08:28;5.65;;;1.23;;
34497;SDS011;20744;50.938;7.286;2022-07-29T07:10:57;13.10;;;1.70;;
34497;SDS011;20744;50.938;7.286;2022-07-29T07:13:24;6.00;;;1.60;;
34497;SDS011;20744;50.938;7.286;2022-07-29T07:15:53;12.63;;;1.90;;
34497;SDS011;20744;50.938;7.286;2022-07-29T07:18:20;10.35;;;1.40;;
34497;SDS011;20744;50.938;7.286;2022-07-29T07:20:47;9.95;;;1.83;;
34497;SDS011;20744;50.938;7.286;2022-07-29T07:23:14;5.53;;;1.60;;
34497;SDS011;20744;50.938;7.286;2022-07-29T07:25:42;4.68;;;1.30;;
34497;SDS011;20744;50.938;7.286;2022-07-29T07:28:10;9.27;;;1.33;;
34497;SDS011;20744;50.938;7.286;2022-07-29T07:30:38;10.52;;;1.50;;
34497;SDS011;20744;50.938;7.286;2022-07-29T07:33:06;7.65;;;1.42;;
34497;SDS011;20744;50.938;7.286;2022-07-29T07:35:33;7.70;;;1.40;;
34497;SDS011;20744;50.938;7.286;2022-07-29T07:38:00;11.07;;;2.03;;
34497;SDS011;20744;50.938;7.286;2022-07-29T07:40:27;5.95;;;1.60;;
34497;SDS011;20744;50.938;7.286;2022-07-29T07:42:55;10.18;;;1.60;;
34497;SDS011;20744;50.938;7.286;2022-07-29T07:45:23;7.90;;;1.60;;
34497;SDS011;20744;50.938;7.286;2022-07-29T07:47:50;8.95;;;1.77;;
34497;SDS011;20744;50.938;7.286;2022-07-29T07:50:18;8.43;;;1.63;;
34497;SDS011;20744;50.938;7.286;2022-07-29T07:52:46;9.00;;;1.50;;
34497;SDS011;20744;50.938;7.286;2022-07-29T07:55:13;4.47;;;1.48;;
34497;SDS011;20744;50.938;7.286;2022-07-29T07:57:41;7.50;;;1.42;;
34497;SDS011;20744;50.938;7.286;2022-07-29T08:00:08;10.27;;;2.28;;
34497;SDS011;20744;50.938;7.286;2022-07-29T08:02:38;9.48;;;1.60;;
34497;SDS011;20744;50.938;7.286;2022-07-29T08:05:05;6.10;;;1.70;;
34497;SDS011;20744;50.938;7.286;2022-07-29T08:07:33;6.30;;;1.50;;
34497;SDS011;20744;50.938;7.286;2022-07-29T08:10:00;10.10;;;1.80;;
34497;SDS011;20744;50.938;7.286;2022-07-29T08:12:28;6.93;;;1.77;;
34497;SDS011;20744;50.938;7.286;2022-07-29T08:14:55;5.30;;;1.67;;
34497;SDS011;20744;50.938;7.286;2022-07-29T08:17:22;6.55;;;1.88;;
34497;SDS011;20744;50.938;7.286;2022-07-29T08:19:51;9.68;;;1.75;;
34497;SDS011;20744;50.938;7.286;2022-07-29T08:22:19;9.52;;;1.48;;
34497;SDS011;20744;50.938;7.286;2022-07-29T08:24:46;8.25;;;1.60;;
34497;SDS011;20744;50.938;7.286;2022-07-29T08:27:19;8.20;;;1.60;;
34497;SDS011;20744;50.938;7.286;2022-07-29T08:29:46;10.93;;;1.80;;
34497;SDS011;20744;50.938;7.286;2022-07-29T08:32:13;7.72;;;1.70;;
34497;SDS011;20744;50.938;7.286;2022-07-29T08:34:41;8.70;;;1.70;;
34497;SDS011;20744;50.938;7.286;2022-07-29T08:37:12;5.63;;;1.52;;
34497;SDS011;20744;50.938;7.286;2022-07-29T08:39:39;6.93;;;1.80;;
34497;SDS011;20744;50.938;7.286;2022-07-29T08:42:07;4.15;;;1.50;;
34497;SDS011;20744;50.938;7.286;2022-07-29T08:44:35;11.20;;;1.77;;
34497;SDS011;20744;50.938;7.286;2022-07-29T08:47:03;13.80;;;2.00;;
34497;SDS011;20744;50.938;7.286;2022-07-29T08:49:30;9.88;;;1.80;;
34497;SDS011;20744;50.938;7.286;2022-07-29T08:51:59;9.40;;;1.67;;
34497;SDS011;20744;50.938;7.286;2022-07-29T08:54:28;12.15;;;2.10;;
34497;SDS011;20744;50.938;7.286;2022-07-29T08:56:56;11.55;;;1.75;;
34497;SDS011;20744;50.938;7.286;2022-07-29T08:59:24;7.80;;;1.90;;
34497;SDS011;20744;50.938;7.286;2022-07-29T09:01:52;6.05;;;1.80;;
34497;SDS011;20744;50.938;7.286;2022-07-29T09:04:20;9.80;;;2.13;;
34497;SDS011;20744;50.938;7.286;2022-07-29T09:06:49;7.68;;;1.63;;
34497;SDS011;20744;50.938;7.286;2022-07-29T09:09:17;12.90;;;1.80;;
34497;SDS011;20744;50.938;7.286;2022-07-29T09:11:45;7.85;;;1.80;;
34497;SDS011;20744;50.938;7.286;2022-07-29T09:14:13;8.27;;;2.00;;
34497;SDS011;20744;50.938;7.286;2022-07-29T09:16:44;10.23;;;1.75;;
34497;SDS011;20744;50.938;7.286;2022-07-29T09:19:19;9.07;;;1.65;;
34497;SDS011;20744;50.938;7.286;2022-07-29T09:21:46;11.20;;;1.98;;
34497;SDS011;20744;50.938;7.286;2022-07-29T09:27:20;8.15;;;1.83;;
34497;SDS011;20744;50.938;7.286;2022-07-29T09:29:54;9.55;;;2.10;;
34497;SDS011;20744;50.938;7.286;2022-07-29T09:34:50;15.88;;;2.10;;
34497;SDS011;20744;50.938;7.286;2022-07-29T09:37:25;10.15;;;1.80;;
34497;SDS011;20744;50.938;7.286;2022-07-29T09:39:52;6.88;;;1.70;;
34497;SDS011;20744;50.938;7.286;2022-07-29T09:42:28;7.97;;;1.80;;
34497;SDS011;20744;50.938;7.286;2022-07-29T09:44:58;7.18;;;1.63;;
34497;SDS011;20744;50.938;7.286;2022-07-29T09:47:27;8.10;;;1.70;;
34497;SDS011;20744;50.938;7.286;2022-07-29T09:50:07;6.38;;;1.73;;
34497;SDS011;20744;50.938;7.286;2022-07-29T09:52:41;6.50;;;1.77;;
34497;SDS011;20744;50.938;7.286;2022-07-29T09:55:11;5.95;;;1.90;;
34497;SDS011;20744;50.938;7.286;2022-07-29T09:57:40;8.73;;;1.60;;
34497;SDS011;20744;50.938;7.286;2022-07-29T10:00:08;6.93;;;2.13;;
34497;SDS011;20744;50.938;7.286;2022-07-29T10:02:36;8.73;;;1.85;;
34497;SDS011;20744;50.938;7.286;2022-07-29T10:05:05;6.57;;;1.70;;
34497;SDS011;20744;50.938;7.286;2022-07-29T10:07:43;9.30;;;1.85;;
34497;SDS011;20744;50.938;7.286;2022-07-29T10:10:10;5.88;;;1.67;;
34497;SDS011;20744;50.938;7.286;2022-07-29T10:12:49;7.80;;;1.80;;
34497;SDS011;20744;50.938;7.286;2022-07-29T10:15:16;6.40;;;1.80;;
34497;SDS011;20744;50.938;7.286;2022-07-29T10:17:45;7.93;;;1.70;;
34497;SDS011;20744;50.938;7.286;2022-07-29T10:20:13;4.20;;;1.60;;
34497;SDS011;20744;50.938;7.286;2022-07-29T10:22:40;4.47;;;1.70;;
34497;SDS011;20744;50.938;7.286;2022-07-29T10:25:09;6.63;;;1.80;;
34497;SDS011;20744;50.938;7.286;2022-07-29T10:27:36;8.05;;;1.83;;
34497;SDS011;20744;50.938;7.286;2022-07-29T10:30:06;10.85;;;1.83;;
34497;SDS011;20744;50.938;7.286;2022-07-29T10:32:35;4.88;;;2.00;;
34497;SDS011;20744;50.938;7.286;2022-07-29T10:35:11;7.55;;;1.80;;
34497;SDS011;20744;50.938;7.286;2022-07-29T10:37:51;8.70;;;1.80;;
34497;SDS011;20744;50.938;7.286;2022-07-29T10:40:22;8.18;;;1.80;;
34497;SDS011;20744;50.938;7.286;2022-07-29T10:43:14;6.55;;;2.25;;
34497;SDS011;20744;50.938;7.286;2022-07-29T10:45:45;6.47;;;1.92;;
34497;SDS011;20744;50.938;7.286;2022-07-29T10:48:13;7.13;;;1.60;;
34497;SDS011;20744;50.938;7.286;2022-07-29T10:56:13;6.63;;;1.80;;
34497;SDS011;20744;50.938;7.286;2022-07-29T10:59:00;4.85;;;1.67;;
34497;SDS011;20744;50.938;7.286;2022-07-29T11:01:50;4.68;;;1.92;;
34497;SDS011;20744;50.938;7.286;2022-07-29T11:04:23;9.32;;;1.73;;
34497;SDS011;20744;50.938;7.286;2022-07-29T11:07:10;3.50;;;1.70;;
34497;SDS011;20744;50.938;7.286;2022-07-29T11:09:38;4.03;;;1.60;;
34497;SDS011;20744;50.938;7.286;2022-07-29T11:12:09;6.15;;;1.88;;
34497;SDS011;20744;50.938;7.286;2022-07-29T11:14:57;6.82;;;1.50;;
34497;SDS011;20744;50.938;7.286;2022-07-29T11:17:28;6.78;;;1.95;;
34497;SDS011;20744;50.938;7.286;2022-07-29T11:22:37;6.45;;;1.70;;
34497;SDS011;20744;50.938;7.286;2022-07-29T11:25:14;4.07;;;1.80;;
34497;SDS011;20744;50.938;7.286;2022-07-29T11:27:41;9.05;;;1.80;;
34497;SDS011;20744;50.938;7.286;2022-07-29T11:30:09;11.68;;;1.95;;
34497;SDS011;20744;50.938;7.286;2022-07-29T11:32:39;6.55;;;1.80;;
34497;SDS011;20744;50.938;7.286;2022-07-29T11:35:10;9.70;;;1.77;;
34497;SDS011;20744;50.938;7.286;2022-07-29T11:37:38;8.52;;;1.77;;
34497;SDS011;20744;50.938;7.286;2022-07-29T11:42:50;9.85;;;2.22;;
34497;SDS011;20744;50.938;7.286;2022-07-29T11:45:19;10.50;;;2.40;;
34497;SDS011;20744;50.938;7.286;2022-07-29T11:47:48;8.02;;;1.98;;
34497;SDS011;20744;50.938;7.286;2022-07-29T11:50:17;13.20;;;1.83;;
34497;SDS011;20744;50.938;7.286;2022-07-29T11:52:45;8.95;;;2.00;;
34497;SDS011;20744;50.938;7.286;2022-07-29T11:55:13;10.50;;;2.22;;
34497;SDS011;20744;50.938;7.286;2022-07-29T11:57:50;6.72;;;2.30;;
34497;SDS011;20744;50.938;7.286;2022-07-29T12:00:22;12.38;;;2.70;;
34497;SDS011;20744;50.938;7.286;2022-07-29T12:02:51;6.63;;;2.17;;
34497;SDS011;20744;50.938;7.286;2022-07-29T12:05:19;7.35;;;2.28;;
34497;SDS011;20744;50.938;7.286;2022-07-29T12:07:47;13.00;;;2.10;;
34497;SDS011;20744;50.938;7.286;2022-07-29T12:10:14;7.90;;;1.90;;
34497;SDS011;20744;50.938;7.286;2022-07-29T12:12:42;11.05;;;2.20;;
34497;SDS011;20744;50.938;7.286;2022-07-29T12:15:13;6.82;;;1.42;;
34497;SDS011;20744;50.938;7.286;2022-07-29T12:17:42;8.82;;;2.08;;
34497;SDS011;20744;50.938;7.286;2022-07-29T12:20:11;13.25;;;2.03;;
34497;SDS011;20744;50.938;7.286;2022-07-29T12:22:42;8.52;;;2.03;;
34497;SDS011;20744;50.938;7.286;2022-07-29T12:25:10;8.50;;;1.92;;
34497;SDS011;20744;50.938;7.286;2022-07-29T12:27:40;12.10;;;2.38;;
34497;SDS011;20744;50.938;7.286;2022-07-29T12:30:09;6.95;;;2.35;;
34497;SDS011;20744;50.938;7.286;2022-07-29T12:32:37;5.07;;;2.00;;
34497;SDS011;20744;50.938;7.286;2022-07-29T12:35:05;7.38;;;1.90;;
34497;SDS011;20744;50.938;7.286;2022-07-29T12:37:35;8.52;;;2.13;;
34497;SDS011;20744;50.938;7.286;2022-07-29T12:40:03;13.63;;;2.13;;
34497;SDS011;20744;50.938;7.286;2022-07-29T12:42:30;9.00;;;2.22;;
34497;SDS011;20744;50.938;7.286;2022-07-29T12:44:58;12.80;;;2.17;;
34497;SDS011;20744;50.938;7.286;2022-07-29T12:47:25;8.55;;;2.28;;
34497;SDS011;20744;50.938;7.286;2022-07-29T12:50:07;8.50;;;1.88;;
34497;SDS011;20744;50.938;7.286;2022-07-29T12:52:35;8.13;;;1.65;;
34497;SDS011;20744;50.938;7.286;2022-07-29T12:55:03;7.30;;;2.03;;
34497;SDS011;20744;50.938;7.286;2022-07-29T12:57:31;8.82;;;2.00;;
34497;SDS011;20744;50.938;7.286;2022-07-29T12:59:59;11.23;;;1.80;;
34497;SDS011;20744;50.938;7.286;2022-07-29T13:02:28;9.70;;;1.52;;
34497;SDS011;20744;50.938;7.286;2022-07-29T13:04:55;8.35;;;2.25;;
34497;SDS011;20744;50.938;7.286;2022-07-29T13:07:27;8.20;;;1.92;;
34497;SDS011;20744;50.938;7.286;2022-07-29T13:10:00;7.10;;;1.85;;
34497;SDS011;20744;50.938;7.286;2022-07-29T13:12:36;7.68;;;1.83;;
34497;SDS011;20744;50.938;7.286;2022-07-29T13:15:12;7.55;;;1.80;;
34497;SDS011;20744;50.938;7.286;2022-07-29T13:17:40;6.43;;;1.65;;
34497;SDS011;20744;50.938;7.286;2022-07-29T13:20:09;8.68;;;1.60;;
34497;SDS011;20744;50.938;7.286;2022-07-29T13:22:37;9.23;;;1.95;;
34497;SDS011;20744;50.938;7.286;2022-07-29T13:25:06;7.53;;;1.88;;
34497;SDS011;20744;50.938;7.286;2022-07-29T13:27:36;7.88;;;1.63;;
34497;SDS011;20744;50.938;7.286;2022-07-29T13:30:04;11.13;;;2.00;;
34497;SDS011;20744;50.938;7.286;2022-07-29T13:32:32;10.40;;;2.20;;
34497;SDS011;20744;50.938;7.286;2022-07-29T13:35:01;6.97;;;1.70;;
34497;SDS011;20744;50.938;7.286;2022-07-29T13:37:29;6.13;;;1.75;;
34497;SDS011;20744;50.938;7.286;2022-07-29T13:39:59;5.45;;;2.03;;
34497;SDS011;20744;50.938;7.286;2022-07-29T13:42:29;9.05;;;2.00;;
34497;SDS011;20744;50.938;7.286;2022-07-29T13:44:56;9.27;;;1.90;;
34497;SDS011;20744;50.938;7.286;2022-07-29T13:47:24;5.30;;;1.60;;
34497;SDS011;20744;50.938;7.286;2022-07-29T13:49:51;8.80;;;2.30;;
34497;SDS011;20744;50.938;7.286;2022-07-29T13:52:19;10.18;;;2.08;;
34497;SDS011;20744;50.938;7.286;2022-07-29T13:54:46;7.60;;;2.05;;
34497;SDS011;20744;50.938;7.286;2022-07-29T13:57:14;5.40;;;1.83;;
34497;SDS011;20744;50.938;7.286;2022-07-29T13:59:42;5.93;;;1.95;;
34497;SDS011;20744;50.938;7.286;2022-07-29T14:02:10;11.30;;;2.13;;
34497;SDS011;20744;50.938;7.286;2022-07-29T14:04:38;6.22;;;1.95;;
34497;SDS011;20744;50.938;7.286;2022-07-29T14:07:06;6.80;;;1.95;;
34497;SDS011;20744;50.938;7.286;2022-07-29T14:09:33;6.45;;;1.70;;
34497;SDS011;20744;50.938;7.286;2022-07-29T14:12:01;8.25;;;1.90;;
34497;SDS011;20744;50.938;7.286;2022-07-29T14:14:28;5.93;;;1.83;;
34497;SDS011;20744;50.938;7.286;2022-07-29T14:16:58;7.95;;;1.80;;
34497;SDS011;20744;50.938;7.286;2022-07-29T14:19:28;4.38;;;2.03;;
34497;SDS011;20744;50.938;7.286;2022-07-29T14:21:56;6.07;;;1.95;;
34497;SDS011;20744;50.938;7.286;2022-07-29T14:24:24;6.72;;;2.15;;
34497;SDS011;20744;50.938;7.286;2022-07-29T14:26:51;9.48;;;1.98;;
34497;SDS011;20744;50.938;7.286;2022-07-29T14:29:18;6.90;;;1.98;;
34497;SDS011;20744;50.938;7.286;2022-07-29T14:31:46;12.20;;;2.00;;
34497;SDS011;20744;50.938;7.286;2022-07-29T14:34:14;6.82;;;1.95;;
34497;SDS011;20744;50.938;7.286;2022-07-29T14:36:41;10.63;;;1.77;;
34497;SDS011;20744;50.938;7.286;2022-07-29T14:39:09;6.78;;;2.00;;
34497;SDS011;20744;50.938;7.286;2022-07-29T14:41:36;9.77;;;2.03;;
34497;SDS011;20744;50.938;7.286;2022-07-29T14:44:03;9.88;;;1.90;;
34497;SDS011;20744;50.938;7.286;2022-07-29T14:46:31;9.18;;;1.90;;
34497;SDS011;20744;50.938;7.286;2022-07-29T14:48:58;6.75;;;2.22;;
34497;SDS011;20744;50.938;7.286;2022-07-29T14:51:27;8.18;;;2.00;;
34497;SDS011;20744;50.938;7.286;2022-07-29T14:53:54;7.45;;;1.85;;
34497;SDS011;20744;50.938;7.286;2022-07-29T14:56:22;5.80;;;2.08;;
34497;SDS011;20744;50.938;7.286;2022-07-29T14:58:50;5.28;;;1.95;;
34497;SDS011;20744;50.938;7.286;2022-07-29T15:01:17;8.10;;;1.98;;
34497;SDS011;20744;50.938;7.286;2022-07-29T15:03:44;3.83;;;1.70;;
34497;SDS011;20744;50.938;7.286;2022-07-29T15:06:11;8.02;;;1.98;;
34497;SDS011;20744;50.938;7.286;2022-07-29T15:08:40;5.88;;;1.80;;
34497;SDS011;20744;50.938;7.286;2022-07-29T15:11:07;6.75;;;1.55;;